sensor_id;sensor_type;location;lat;lon;timestamp;pressure;altitude;pressure_sealevel;temperature;humidity
7760;BME280;3924;48.830;9.262;2022-07-15T00:02:12;98822.75;;;22.85;42.58
7760;BME280;3924;48.830;9.262;2022-07-15T00:04:39;98827.03;;;22.83;42.73
7760;BME280;3924;48.830;9.262;2022-07-15T00:07:05;98829.66;;;22.76;42.91
7760;BME280;3924;48.830;9.262;2022-07-15T00:09:32;98822.78;;;22.66;42.79
7760;BME280;3924;48.830;9.262;2022-07-15T00:12:18;98827.72;;;22.57;43.33
7760;BME280;3924;48.830;9.262;2022-07-15T00:14:44;98821.72;;;22.51;43.09
7760;BME280;3924;48.830;9.262;2022-07-15T00:17:11;98827.81;;;22.41;43.24
7760;BME280;3924;48.830;9.262;2022-07-15T00:19:37;98828.56;;;22.38;43.30
7760;BME280;3924;48.830;9.262;2022-07-15T00:22:04;98828.31;;;22.47;43.10
7760;BME280;3924;48.830;9.262;2022-07-15T00:24:30;98827.53;;;22.46;43.08
7760;BME280;3924;48.830;9.262;2022-07-15T00:26:57;98829.50;;;22.46;43.26
7760;BME280;3924;48.830;9.262;2022-07-15T00:29:23;98832.16;;;22.42;43.33
7760;BME280;3924;48.830;9.262;2022-07-15T00:31:53;98826.28;;;22.44;43.13
7760;BME280;3924;48.830;9.262;2022-07-15T00:34:20;98824.69;;;22.43;43.20
7760;BME280;3924;48.830;9.262;2022-07-15T00:36:47;98820.59;;;22.36;43.56
7760;BME280;3924;48.830;9.262;2022-07-15T00:39:14;98828.97;;;22.40;43.44
7760;BME280;3924;48.830;9.262;2022-07-15T00:41:43;98827.81;;;22.41;43.41
7760;BME280;3924;48.830;9.262;2022-07-15T00:44:09;98825.34;;;22.36;43.73
7760;BME280;3924;48.830;9.262;2022-07-15T00:46:36;98827.66;;;22.34;43.57
7760;BME280;3924;48.830;9.262;2022-07-15T00:49:06;98824.75;;;22.27;43.66
7760;BME280;3924;48.830;9.262;2022-07-15T00:54:05;98827.44;;;22.04;44.13
7760;BME280;3924;48.830;9.262;2022-07-15T00:56:37;98834.91;;;22.03;44.23
7760;BME280;3924;48.830;9.262;2022-07-15T00:59:05;98840.44;;;22.03;44.27
7760;BME280;3924;48.830;9.262;2022-07-15T01:01:35;98828.22;;;22.04;44.12
7760;BME280;3924;48.830;9.262;2022-07-15T01:04:03;98832.22;;;22.07;44.20
7760;BME280;3924;48.830;9.262;2022-07-15T01:06:31;98827.47;;;22.07;44.17
7760;BME280;3924;48.830;9.262;2022-07-15T01:08:58;98820.00;;;22.08;44.29
7760;BME280;3924;48.830;9.262;2022-07-15T01:11:25;98831.69;;;22.01;44.18
7760;BME280;3924;48.830;9.262;2022-07-15T01:13:52;98839.53;;;21.99;44.33
7760;BME280;3924;48.830;9.262;2022-07-15T01:16:19;98834.75;;;21.96;44.52
7760;BME280;3924;48.830;9.262;2022-07-15T01:18:45;98839.03;;;21.94;44.58
7760;BME280;3924;48.830;9.262;2022-07-15T01:21:12;98840.03;;;21.85;44.88
7760;BME280;3924;48.830;9.262;2022-07-15T01:23:39;98837.81;;;21.75;45.11
7760;BME280;3924;48.830;9.262;2022-07-15T01:26:12;98839.97;;;21.66;45.22
7760;BME280;3924;48.830;9.262;2022-07-15T01:28:40;98841.34;;;21.56;45.46
7760;BME280;3924;48.830;9.262;2022-07-15T01:31:06;98853.09;;;21.53;45.57
7760;BME280;3924;48.830;9.262;2022-07-15T01:33:33;98845.59;;;21.54;45.84
7760;BME280;3924;48.830;9.262;2022-07-15T01:36:01;98844.91;;;21.57;45.60
7760;BME280;3924;48.830;9.262;2022-07-15T01:38:28;98844.81;;;21.53;45.78
7760;BME280;3924;48.830;9.262;2022-07-15T01:40:55;98851.06;;;21.50;45.71
7760;BME280;3924;48.830;9.262;2022-07-15T01:43:22;98847.75;;;21.45;45.96
7760;BME280;3924;48.830;9.262;2022-07-15T01:45:49;98846.16;;;21.44;46.24
7760;BME280;3924;48.830;9.262;2022-07-15T01:48:15;98845.38;;;21.43;45.81
7760;BME280;3924;48.830;9.262;2022-07-15T01:51:01;98847.22;;;21.39;46.36
7760;BME280;3924;48.830;9.262;2022-07-15T01:53:28;98842.81;;;21.35;46.06
7760;BME280;3924;48.830;9.262;2022-07-15T01:55:55;98840.38;;;21.33;46.45
7760;BME280;3924;48.830;9.262;2022-07-15T01:58:21;98848.94;;;21.28;46.48
7760;BME280;3924;48.830;9.262;2022-07-15T02:00:48;98845.63;;;21.22;46.54
7760;BME280;3924;48.830;9.262;2022-07-15T02:03:15;98843.91;;;21.18;46.74
7760;BME280;3924;48.830;9.262;2022-07-15T02:05:42;98850.84;;;21.12;46.93
7760;BME280;3924;48.830;9.262;2022-07-15T02:08:08;98842.94;;;21.10;47.10
7760;BME280;3924;48.830;9.262;2022-07-15T02:10:41;98848.63;;;21.01;46.88
7760;BME280;3924;48.830;9.262;2022-07-15T02:13:09;98847.78;;;20.85;47.45
7760;BME280;3924;48.830;9.262;2022-07-15T02:15:37;98843.44;;;20.84;47.37
7760;BME280;3924;48.830;9.262;2022-07-15T02:18:04;98839.19;;;20.87;47.42
7760;BME280;3924;48.830;9.262;2022-07-15T02:20:31;98847.34;;;20.83;47.33
7760;BME280;3924;48.830;9.262;2022-07-15T02:22:59;98842.28;;;20.85;47.57
7760;BME280;3924;48.830;9.262;2022-07-15T02:25:30;98840.44;;;20.89;47.44
7760;BME280;3924;48.830;9.262;2022-07-15T02:28:01;98853.31;;;20.85;47.75
7760;BME280;3924;48.830;9.262;2022-07-15T02:30:31;98844.59;;;20.83;47.74
7760;BME280;3924;48.830;9.262;2022-07-15T02:32:58;98844.59;;;20.83;47.64
7760;BME280;3924;48.830;9.262;2022-07-15T02:35:25;98846.91;;;20.81;47.84
7760;BME280;3924;48.830;9.262;2022-07-15T02:37:52;98849.19;;;20.79;48.03
7760;BME280;3924;48.830;9.262;2022-07-15T02:40:19;98848.06;;;20.80;48.07
7760;BME280;3924;48.830;9.262;2022-07-15T02:42:47;98846.25;;;20.72;48.05
7760;BME280;3924;48.830;9.262;2022-07-15T02:45:14;98847.22;;;20.64;48.11
7760;BME280;3924;48.830;9.262;2022-07-15T02:47:41;98851.75;;;20.56;48.55
7760;BME280;3924;48.830;9.262;2022-07-15T02:50:08;98842.59;;;20.52;48.50
7760;BME280;3924;48.830;9.262;2022-07-15T02:52:34;98853.06;;;20.46;48.79
7760;BME280;3924;48.830;9.262;2022-07-15T02:55:02;98848.69;;;20.45;48.81
7760;BME280;3924;48.830;9.262;2022-07-15T02:57:29;98852.81;;;20.39;48.82
7760;BME280;3924;48.830;9.262;2022-07-15T02:59:55;98854.44;;;20.40;49.00
7760;BME280;3924;48.830;9.262;2022-07-15T03:02:22;98852.72;;;20.36;49.26
7760;BME280;3924;48.830;9.262;2022-07-15T03:04:48;98858.13;;;20.32;49.48
7760;BME280;3924;48.830;9.262;2022-07-15T03:07:15;98858.72;;;20.26;49.65
7760;BME280;3924;48.830;9.262;2022-07-15T03:09:41;98864.47;;;20.20;49.67
7760;BME280;3924;48.830;9.262;2022-07-15T03:12:08;98863.22;;;20.18;49.85
7760;BME280;3924;48.830;9.262;2022-07-15T03:14:34;98854.75;;;20.11;49.71
7760;BME280;3924;48.830;9.262;2022-07-15T03:17:01;98856.59;;;20.07;49.88
7760;BME280;3924;48.830;9.262;2022-07-15T03:19:27;98853.13;;;20.10;49.96
7760;BME280;3924;48.830;9.262;2022-07-15T03:21:54;98855.22;;;20.13;49.98
7760;BME280;3924;48.830;9.262;2022-07-15T03:24:20;98864.63;;;20.12;49.97
7760;BME280;3924;48.830;9.262;2022-07-15T03:26:47;98861.75;;;20.08;50.34
7760;BME280;3924;48.830;9.262;2022-07-15T03:29:13;98863.63;;;19.92;50.18
7760;BME280;3924;48.830;9.262;2022-07-15T03:31:43;98864.78;;;19.79;50.57
7760;BME280;3924;48.830;9.262;2022-07-15T03:34:10;98869.94;;;19.80;50.99
7760;BME280;3924;48.830;9.262;2022-07-15T03:36:37;98867.19;;;19.80;50.78
7760;BME280;3924;48.830;9.262;2022-07-15T03:39:05;98868.13;;;19.72;51.04
7760;BME280;3924;48.830;9.262;2022-07-15T03:41:32;98870.66;;;19.77;51.14
7760;BME280;3924;48.830;9.262;2022-07-15T03:43:59;98871.09;;;19.79;50.98
7760;BME280;3924;48.830;9.262;2022-07-15T03:46:27;98871.53;;;19.81;51.16
7760;BME280;3924;48.830;9.262;2022-07-15T03:48:54;98877.84;;;19.82;51.13
7760;BME280;3924;48.830;9.262;2022-07-15T03:51:20;98869.94;;;19.80;51.34
7760;BME280;3924;48.830;9.262;2022-07-15T03:53:47;98875.22;;;19.73;51.56
7760;BME280;3924;48.830;9.262;2022-07-15T03:56:13;98875.44;;;19.68;51.59
7760;BME280;3924;48.830;9.262;2022-07-15T03:58:40;98879.13;;;19.72;51.59
7760;BME280;3924;48.830;9.262;2022-07-15T04:01:06;98879.13;;;19.72;51.75
7760;BME280;3924;48.830;9.262;2022-07-15T04:03:33;98880.63;;;19.70;51.83
7760;BME280;3924;48.830;9.262;2022-07-15T04:06:00;98877.53;;;19.71;51.92
7760;BME280;3924;48.830;9.262;2022-07-15T04:08:27;98883.03;;;19.71;51.93
7760;BME280;3924;48.830;9.262;2022-07-15T04:10:55;98884.97;;;19.71;51.95
7760;BME280;3924;48.830;9.262;2022-07-15T04:13:22;98886.22;;;19.73;51.91
7760;BME280;3924;48.830;9.262;2022-07-15T04:15:48;98880.94;;;19.80;51.79
7760;BME280;3924;48.830;9.262;2022-07-15T04:18:15;98882.53;;;19.81;51.89
7760;BME280;3924;48.830;9.262;2022-07-15T04:20:41;98884.94;;;19.83;51.85
7760;BME280;3924;48.830;9.262;2022-07-15T04:23:08;98888.53;;;19.83;51.76
7760;BME280;3924;48.830;9.262;2022-07-15T04:25:35;98885.78;;;19.83;51.92
7760;BME280;3924;48.830;9.262;2022-07-15T04:28:02;98892.06;;;19.84;51.91
7760;BME280;3924;48.830;9.262;2022-07-15T04:30:28;98885.06;;;19.86;52.00
7760;BME280;3924;48.830;9.262;2022-07-15T04:32:55;98880.38;;;19.87;51.94
7760;BME280;3924;48.830;9.262;2022-07-15T04:35:21;98891.94;;;19.92;51.90
7760;BME280;3924;48.830;9.262;2022-07-15T04:37:48;98886.22;;;19.85;51.87
7760;BME280;3924;48.830;9.262;2022-07-15T04:40:14;98895.63;;;19.72;52.27
7760;BME280;3924;48.830;9.262;2022-07-15T04:42:41;98890.44;;;19.83;52.10
7760;BME280;3924;48.830;9.262;2022-07-15T04:45:07;98889.06;;;19.89;51.84
7760;BME280;3924;48.830;9.262;2022-07-15T04:47:34;98890.56;;;19.99;51.78
7760;BME280;3924;48.830;9.262;2022-07-15T04:50:01;98887.09;;;20.02;51.86
7760;BME280;3924;48.830;9.262;2022-07-15T04:52:46;98882.31;;;19.99;51.89
7760;BME280;3924;48.830;9.262;2022-07-15T04:55:14;98882.88;;;20.04;51.65
7760;BME280;3924;48.830;9.262;2022-07-15T04:57:41;98880.06;;;20.16;51.57
7760;BME280;3924;48.830;9.262;2022-07-15T05:00:08;98884.28;;;20.38;51.07
7760;BME280;3924;48.830;9.262;2022-07-15T05:02:35;98879.66;;;20.55;50.88
7760;BME280;3924;48.830;9.262;2022-07-15T05:05:02;98892.41;;;20.75;50.81
7760;BME280;3924;48.830;9.262;2022-07-15T05:07:29;98889.41;;;20.80;50.48
7760;BME280;3924;48.830;9.262;2022-07-15T05:09:55;98891.50;;;20.71;50.70
7760;BME280;3924;48.830;9.262;2022-07-15T05:12:22;98888.09;;;20.62;50.79
7760;BME280;3924;48.830;9.262;2022-07-15T05:14:48;98898.94;;;20.55;50.67
7760;BME280;3924;48.830;9.262;2022-07-15T05:17:15;98890.88;;;20.62;50.68
7760;BME280;3924;48.830;9.262;2022-07-15T05:19:41;98892.50;;;20.79;50.47
7760;BME280;3924;48.830;9.262;2022-07-15T05:22:08;98893.56;;;20.74;50.56
7760;BME280;3924;48.830;9.262;2022-07-15T05:24:34;98894.22;;;20.83;50.32
7760;BME280;3924;48.830;9.262;2022-07-15T05:27:01;98897.91;;;21.03;49.59
7760;BME280;3924;48.830;9.262;2022-07-15T05:29:27;98900.94;;;21.14;49.73
7760;BME280;3924;48.830;9.262;2022-07-15T05:31:54;98894.72;;;21.17;49.49
7760;BME280;3924;48.830;9.262;2022-07-15T05:34:21;98893.28;;;21.23;49.61
7760;BME280;3924;48.830;9.262;2022-07-15T05:36:48;98896.25;;;21.30;49.15
7760;BME280;3924;48.830;9.262;2022-07-15T05:39:14;98904.75;;;21.25;49.56
7760;BME280;3924;48.830;9.262;2022-07-15T05:41:41;98907.53;;;21.25;49.51
7760;BME280;3924;48.830;9.262;2022-07-15T05:44:13;98901.97;;;21.37;49.35
7760;BME280;3924;48.830;9.262;2022-07-15T05:46:40;98904.97;;;21.32;49.45
7760;BME280;3924;48.830;9.262;2022-07-15T05:49:06;98904.47;;;21.42;49.25
7760;BME280;3924;48.830;9.262;2022-07-15T05:51:33;98907.66;;;21.44;49.17
7760;BME280;3924;48.830;9.262;2022-07-15T05:54:02;98905.34;;;21.46;49.17
7760;BME280;3924;48.830;9.262;2022-07-15T05:56:29;98920.38;;;21.65;48.63
7760;BME280;3924;48.830;9.262;2022-07-15T05:58:55;98913.78;;;21.85;48.41
7760;BME280;3924;48.830;9.262;2022-07-15T06:01:22;98913.50;;;21.90;48.24
7760;BME280;3924;48.830;9.262;2022-07-15T06:03:49;98919.28;;;21.85;48.26
7760;BME280;3924;48.830;9.262;2022-07-15T06:06:17;98918.16;;;21.70;48.59
7760;BME280;3924;48.830;9.262;2022-07-15T06:08:43;98917.69;;;21.68;48.58
7760;BME280;3924;48.830;9.262;2022-07-15T06:11:10;98922.75;;;21.82;48.19
7760;BME280;3924;48.830;9.262;2022-07-15T06:13:38;98930.88;;;21.91;48.32
7760;BME280;3924;48.830;9.262;2022-07-15T06:16:06;98921.88;;;21.78;48.38
7760;BME280;3924;48.830;9.262;2022-07-15T06:18:35;98927.41;;;21.78;48.57
7760;BME280;3924;48.830;9.262;2022-07-15T06:21:02;98919.59;;;22.15;48.04
7760;BME280;3924;48.830;9.262;2022-07-15T06:23:28;98913.63;;;22.48;47.31
7760;BME280;3924;48.830;9.262;2022-07-15T06:25:55;98915.31;;;22.72;46.59
7760;BME280;3924;48.830;9.262;2022-07-15T06:28:22;98910.13;;;22.90;46.38
7760;BME280;3924;48.830;9.262;2022-07-15T06:30:49;98911.00;;;22.94;46.27
7760;BME280;3924;48.830;9.262;2022-07-15T06:33:15;98909.69;;;23.07;45.93
7760;BME280;3924;48.830;9.262;2022-07-15T06:35:42;98919.22;;;23.10;45.88
7760;BME280;3924;48.830;9.262;2022-07-15T06:38:11;98909.66;;;23.27;45.49
7760;BME280;3924;48.830;9.262;2022-07-15T06:40:37;98914.13;;;23.35;45.16
7760;BME280;3924;48.830;9.262;2022-07-15T06:43:03;98908.59;;;23.35;45.44
7760;BME280;3924;48.830;9.262;2022-07-15T06:45:30;98918.53;;;23.16;45.44
7760;BME280;3924;48.830;9.262;2022-07-15T06:47:57;98910.25;;;23.16;45.14
7760;BME280;3924;48.830;9.262;2022-07-15T06:50:24;98915.66;;;23.32;44.93
7760;BME280;3924;48.830;9.262;2022-07-15T06:52:50;98910.88;;;23.29;44.98
7760;BME280;3924;48.830;9.262;2022-07-15T06:55:17;98909.50;;;23.19;44.77
7760;BME280;3924;48.830;9.262;2022-07-15T06:57:44;98906.03;;;23.03;44.92
7760;BME280;3924;48.830;9.262;2022-07-15T07:00:11;98906.78;;;23.00;44.92
7760;BME280;3924;48.830;9.262;2022-07-15T07:02:38;98911.00;;;23.13;44.78
7760;BME280;3924;48.830;9.262;2022-07-15T07:05:12;98909.28;;;23.28;44.18
7760;BME280;3924;48.830;9.262;2022-07-15T07:07:39;98908.72;;;23.42;44.18
7760;BME280;3924;48.830;9.262;2022-07-15T07:10:06;98906.75;;;23.65;43.42
7760;BME280;3924;48.830;9.262;2022-07-15T07:12:33;98916.53;;;23.82;43.12
7760;BME280;3924;48.830;9.262;2022-07-15T07:14:59;98912.63;;;23.87;43.09
7760;BME280;3924;48.830;9.262;2022-07-15T07:17:28;98903.78;;;24.04;42.42
7760;BME280;3924;48.830;9.262;2022-07-15T07:19:55;98905.88;;;24.11;42.46
7760;BME280;3924;48.830;9.262;2022-07-15T07:22:22;98900.56;;;24.28;42.00
7760;BME280;3924;48.830;9.262;2022-07-15T07:24:48;98912.00;;;24.23;41.82
7760;BME280;3924;48.830;9.262;2022-07-15T07:27:15;98904.50;;;24.27;41.75
7760;BME280;3924;48.830;9.262;2022-07-15T07:29:41;98898.38;;;24.41;41.53
7760;BME280;3924;48.830;9.262;2022-07-15T07:32:08;98898.28;;;24.64;41.15
7760;BME280;3924;48.830;9.262;2022-07-15T07:34:34;98894.81;;;24.74;40.71
7760;BME280;3924;48.830;9.262;2022-07-15T07:37:01;98898.84;;;24.80;40.68
7760;BME280;3924;48.830;9.262;2022-07-15T07:39:27;98899.72;;;24.88;40.43
7760;BME280;3924;48.830;9.262;2022-07-15T07:41:54;98902.63;;;24.99;40.23
7760;BME280;3924;48.830;9.262;2022-07-15T07:44:21;98895.84;;;24.93;40.32
7760;BME280;3924;48.830;9.262;2022-07-15T07:46:47;98903.47;;;24.69;40.58
7760;BME280;3924;48.830;9.262;2022-07-15T07:49:14;98902.03;;;24.82;40.00
7760;BME280;3924;48.830;9.262;2022-07-15T07:52:00;98895.84;;;24.93;39.66
7760;BME280;3924;48.830;9.262;2022-07-15T07:54:27;98900.69;;;25.03;39.69
7760;BME280;3924;48.830;9.262;2022-07-15T07:56:55;98890.47;;;25.10;39.58
7760;BME280;3924;48.830;9.262;2022-07-15T07:59:22;98894.66;;;24.94;39.48
7760;BME280;3924;48.830;9.262;2022-07-15T08:01:48;98895.84;;;24.96;39.63
7760;BME280;3924;48.830;9.262;2022-07-15T08:04:16;98901.56;;;25.07;39.50
7760;BME280;3924;48.830;9.262;2022-07-15T08:06:42;98891.31;;;25.15;39.22
7760;BME280;3924;48.830;9.262;2022-07-15T08:09:09;98884.03;;;25.03;39.38
7760;BME280;3924;48.830;9.262;2022-07-15T08:11:35;98887.91;;;24.91;39.65
7760;BME280;3924;48.830;9.262;2022-07-15T08:14:02;98888.75;;;24.99;39.17
7760;BME280;3924;48.830;9.262;2022-07-15T08:16:29;98887.34;;;25.12;39.04
7760;BME280;3924;48.830;9.262;2022-07-15T08:18:55;98882.59;;;25.16;38.84
7760;BME280;3924;48.830;9.262;2022-07-15T08:21:23;98886.75;;;25.36;38.62
7760;BME280;3924;48.830;9.262;2022-07-15T08:23:49;98887.09;;;25.28;38.44
7760;BME280;3924;48.830;9.262;2022-07-15T08:26:17;98886.97;;;25.17;38.41
7760;BME280;3924;48.830;9.262;2022-07-15T08:28:50;98887.09;;;25.31;38.43
7760;BME280;3924;48.830;9.262;2022-07-15T08:31:31;98889.09;;;25.31;37.96
7760;BME280;3924;48.830;9.262;2022-07-15T08:33:58;98882.41;;;25.35;37.70
7760;BME280;3924;48.830;9.262;2022-07-15T08:36:25;98887.78;;;25.62;37.51
7760;BME280;3924;48.830;9.262;2022-07-15T08:38:51;98891.88;;;25.79;37.37
7760;BME280;3924;48.830;9.262;2022-07-15T08:41:18;98885.88;;;25.73;37.19
7760;BME280;3924;48.830;9.262;2022-07-15T08:43:45;98877.06;;;25.60;37.19
7760;BME280;3924;48.830;9.262;2022-07-15T08:46:13;98877.41;;;25.59;37.36
7760;BME280;3924;48.830;9.262;2022-07-15T08:48:41;98880.75;;;25.75;37.14
7760;BME280;3924;48.830;9.262;2022-07-15T08:51:10;98880.38;;;25.80;36.50
7760;BME280;3924;48.830;9.262;2022-07-15T08:53:37;98884.81;;;25.88;36.49
7760;BME280;3924;48.830;9.262;2022-07-15T08:56:04;98889.50;;;25.77;36.85
7760;BME280;3924;48.830;9.262;2022-07-15T08:58:34;98883.31;;;26.02;36.75
7760;BME280;3924;48.830;9.262;2022-07-15T09:01:20;98879.47;;;26.24;36.25
7760;BME280;3924;48.830;9.262;2022-07-15T09:03:47;98897.38;;;26.34;35.68
7760;BME280;3924;48.830;9.262;2022-07-15T09:09:34;98889.19;;;25.89;36.80
7760;BME280;3924;48.830;9.262;2022-07-15T09:12:10;98892.84;;;26.04;36.49
7760;BME280;3924;48.830;9.262;2022-07-15T09:14:42;98891.22;;;26.00;36.26
7760;BME280;3924;48.830;9.262;2022-07-15T09:22:22;98897.19;;;25.95;36.12
7760;BME280;3924;48.830;9.262;2022-07-15T09:25:09;98886.41;;;25.89;35.98
7760;BME280;3924;48.830;9.262;2022-07-15T09:27:41;98893.38;;;25.69;35.95
7760;BME280;3924;48.830;9.262;2022-07-15T09:30:21;98883.94;;;25.29;36.67
7760;BME280;3924;48.830;9.262;2022-07-15T09:33:12;98890.47;;;25.07;37.04
7760;BME280;3924;48.830;9.262;2022-07-15T09:39:54;98892.94;;;25.63;35.88
7760;BME280;3924;48.830;9.262;2022-07-15T09:42:22;98887.34;;;26.08;35.42
7760;BME280;3924;48.830;9.262;2022-07-15T09:44:49;98894.59;;;26.30;35.03
7760;BME280;3924;48.830;9.262;2022-07-15T09:47:19;98896.94;;;26.28;34.96
7760;BME280;3924;48.830;9.262;2022-07-15T09:49:45;98895.94;;;25.92;35.35
7760;BME280;3924;48.830;9.262;2022-07-15T09:52:13;98903.31;;;25.70;35.14
7760;BME280;3924;48.830;9.262;2022-07-15T09:54:43;98903.41;;;25.36;36.09
7760;BME280;3924;48.830;9.262;2022-07-15T09:57:12;98893.84;;;25.30;36.29
7760;BME280;3924;48.830;9.262;2022-07-15T09:59:46;98899.28;;;25.64;35.44
7760;BME280;3924;48.830;9.262;2022-07-15T10:02:13;98896.25;;;25.80;35.18
7760;BME280;3924;48.830;9.262;2022-07-15T10:04:40;98898.03;;;26.06;35.19
7760;BME280;3924;48.830;9.262;2022-07-15T10:07:07;98893.38;;;26.24;34.51
7760;BME280;3924;48.830;9.262;2022-07-15T10:09:53;98897.06;;;26.42;34.58
7760;BME280;3924;48.830;9.262;2022-07-15T10:12:26;98892.38;;;26.57;34.50
7760;BME280;3924;48.830;9.262;2022-07-15T10:15:46;98897.16;;;26.64;34.16
7760;BME280;3924;48.830;9.262;2022-07-15T10:24:02;98892.78;;;26.66;33.86
7760;BME280;3924;48.830;9.262;2022-07-15T10:29:24;98882.78;;;26.48;33.93
7760;BME280;3924;48.830;9.262;2022-07-15T10:31:58;98883.91;;;26.36;34.35
7760;BME280;3924;48.830;9.262;2022-07-15T10:34:34;98883.97;;;26.47;34.30
7760;BME280;3924;48.830;9.262;2022-07-15T10:37:04;98874.88;;;26.57;33.82
7760;BME280;3924;48.830;9.262;2022-07-15T10:39:53;98867.34;;;26.68;34.26
7760;BME280;3924;48.830;9.262;2022-07-15T10:42:20;98868.63;;;26.92;33.93
7760;BME280;3924;48.830;9.262;2022-07-15T10:47:25;98863.91;;;27.07;33.25
7760;BME280;3924;48.830;9.262;2022-07-15T10:49:53;98857.56;;;27.31;32.93
7760;BME280;3924;48.830;9.262;2022-07-15T10:52:25;98850.41;;;27.37;32.96
7760;BME280;3924;48.830;9.262;2022-07-15T11:00:34;98852.00;;;27.52;33.10
7760;BME280;3924;48.830;9.262;2022-07-15T11:03:11;98847.22;;;27.42;32.72
7760;BME280;3924;48.830;9.262;2022-07-15T11:13:44;98836.41;;;28.01;32.15
7760;BME280;3924;48.830;9.262;2022-07-15T11:16:12;98836.72;;;28.25;31.89
7760;BME280;3924;48.830;9.262;2022-07-15T11:18:52;98828.91;;;27.66;32.53
7760;BME280;3924;48.830;9.262;2022-07-15T11:21:20;98834.09;;;27.25;33.13
7760;BME280;3924;48.830;9.262;2022-07-15T11:23:49;98826.13;;;27.34;33.28
7760;BME280;3924;48.830;9.262;2022-07-15T11:26:16;98816.19;;;27.69;32.78
7760;BME280;3924;48.830;9.262;2022-07-15T11:31:16;98820.16;;;27.75;32.74
7760;BME280;3924;48.830;9.262;2022-07-15T11:33:43;98813.38;;;27.51;33.01
7760;BME280;3924;48.830;9.262;2022-07-15T11:36:17;98824.94;;;27.21;32.94
7760;BME280;3924;48.830;9.262;2022-07-15T11:38:45;98820.13;;;27.00;33.59
7760;BME280;3924;48.830;9.262;2022-07-15T11:41:11;98820.56;;;27.13;33.34
7760;BME280;3924;48.830;9.262;2022-07-15T11:44:03;98823.75;;;27.29;33.04
7760;BME280;3924;48.830;9.262;2022-07-15T11:46:49;98820.94;;;27.43;32.73
7760;BME280;3924;48.830;9.262;2022-07-15T11:49:32;98819.38;;;27.14;33.52
7760;BME280;3924;48.830;9.262;2022-07-15T11:52:01;98819.28;;;26.82;34.22
7760;BME280;3924;48.830;9.262;2022-07-15T11:54:28;98826.06;;;26.95;33.85
7760;BME280;3924;48.830;9.262;2022-07-15T11:57:02;98814.56;;;27.04;33.62
7760;BME280;3924;48.830;9.262;2022-07-15T11:59:29;98813.00;;;27.17;33.33
7760;BME280;3924;48.830;9.262;2022-07-15T12:02:19;98816.19;;;27.33;32.84
7760;BME280;3924;48.830;9.262;2022-07-15T12:04:45;98808.22;;;27.60;32.76
7760;BME280;3924;48.830;9.262;2022-07-15T12:07:12;98804.19;;;27.90;32.65
7760;BME280;3924;48.830;9.262;2022-07-15T12:09:43;98805.69;;;28.16;32.00
7760;BME280;3924;48.830;9.262;2022-07-15T12:12:10;98806.91;;;28.15;32.13
7760;BME280;3924;48.830;9.262;2022-07-15T12:14:37;98808.19;;;27.78;32.30
7760;BME280;3924;48.830;9.262;2022-07-15T12:17:04;98807.00;;;27.72;32.84
7760;BME280;3924;48.830;9.262;2022-07-15T12:19:33;98797.00;;;27.92;32.46
7760;BME280;3924;48.830;9.262;2022-07-15T12:22:04;98803.03;;;27.66;32.86
7760;BME280;3924;48.830;9.262;2022-07-15T12:24:43;98806.25;;;27.68;32.94
7760;BME280;3924;48.830;9.262;2022-07-15T12:27:12;98803.81;;;27.63;32.77
7760;BME280;3924;48.830;9.262;2022-07-15T12:29:39;98793.81;;;28.01;32.23
7760;BME280;3924;48.830;9.262;2022-07-15T12:32:26;98800.84;;;28.34;32.06
7760;BME280;3924;48.830;9.262;2022-07-15T12:34:54;98802.50;;;28.21;32.20
7760;BME280;3924;48.830;9.262;2022-07-15T12:40:11;98800.84;;;28.38;32.04
7760;BME280;3924;48.830;9.262;2022-07-15T12:42:39;98804.78;;;28.47;31.89
7760;BME280;3924;48.830;9.262;2022-07-15T12:45:13;98798.47;;;28.36;31.56
7760;BME280;3924;48.830;9.262;2022-07-15T12:47:59;98802.03;;;28.40;31.73
7760;BME280;3924;48.830;9.262;2022-07-15T12:53:24;98806.59;;;28.82;31.36
7760;BME280;3924;48.830;9.262;2022-07-15T12:55:52;98792.88;;;29.02;31.29
7760;BME280;3924;48.830;9.262;2022-07-15T12:58:24;98791.06;;;28.78;31.76
7760;BME280;3924;48.830;9.262;2022-07-15T13:00:52;98794.44;;;28.44;32.17
7760;BME280;3924;48.830;9.262;2022-07-15T13:03:20;98795.81;;;27.90;32.71
7760;BME280;3924;48.830;9.262;2022-07-15T13:05:52;98801.84;;;27.31;33.42
7760;BME280;3924;48.830;9.262;2022-07-15T13:08:24;98784.75;;;26.93;33.91
7760;BME280;3924;48.830;9.262;2022-07-15T13:10:54;98790.69;;;26.95;33.59
7760;BME280;3924;48.830;9.262;2022-07-15T13:13:23;98786.75;;;27.32;32.84
7760;BME280;3924;48.830;9.262;2022-07-15T13:15:50;98795.50;;;27.52;32.89
7760;BME280;3924;48.830;9.262;2022-07-15T13:18:18;98776.78;;;27.52;32.63
7760;BME280;3924;48.830;9.262;2022-07-15T13:20:46;98781.91;;;27.90;32.73
7760;BME280;3924;48.830;9.262;2022-07-15T13:23:12;98786.59;;;28.14;32.42
7760;BME280;3924;48.830;9.262;2022-07-15T13:25:39;98777.31;;;28.42;31.89
7760;BME280;3924;48.830;9.262;2022-07-15T13:28:08;98780.00;;;28.64;31.78
7760;BME280;3924;48.830;9.262;2022-07-15T13:30:36;98779.38;;;28.20;31.82
7760;BME280;3924;48.830;9.262;2022-07-15T13:33:03;98776.38;;;27.68;32.71
7760;BME280;3924;48.830;9.262;2022-07-15T13:35:30;98785.97;;;27.28;33.38
7760;BME280;3924;48.830;9.262;2022-07-15T13:37:57;98783.19;;;27.07;33.83
7760;BME280;3924;48.830;9.262;2022-07-15T13:40:23;98769.63;;;27.02;33.75
7760;BME280;3924;48.830;9.262;2022-07-15T13:42:50;98773.19;;;26.77;34.01
7760;BME280;3924;48.830;9.262;2022-07-15T13:45:16;98774.81;;;27.21;33.69
7760;BME280;3924;48.830;9.262;2022-07-15T13:47:43;98779.56;;;27.60;32.81
7760;BME280;3924;48.830;9.262;2022-07-15T13:50:10;98776.38;;;27.58;32.83
7760;BME280;3924;48.830;9.262;2022-07-15T13:52:58;98770.81;;;27.68;32.86
7760;BME280;3924;48.830;9.262;2022-07-15T13:55:25;98779.50;;;27.85;32.57
7760;BME280;3924;48.830;9.262;2022-07-15T13:57:52;98784.69;;;27.86;32.43
7760;BME280;3924;48.830;9.262;2022-07-15T14:00:21;98786.28;;;27.94;32.57
7760;BME280;3924;48.830;9.262;2022-07-15T14:02:50;98781.13;;;27.78;32.35
7760;BME280;3924;48.830;9.262;2022-07-15T14:05:17;98785.91;;;27.67;32.52
7760;BME280;3924;48.830;9.262;2022-07-15T14:07:45;98781.88;;;27.86;32.62
7760;BME280;3924;48.830;9.262;2022-07-15T14:10:11;98786.13;;;28.37;31.84
7760;BME280;3924;48.830;9.262;2022-07-15T14:12:39;98786.25;;;28.78;31.60
7760;BME280;3924;48.830;9.262;2022-07-15T14:15:05;98790.16;;;28.88;31.06
7760;BME280;3924;48.830;9.262;2022-07-15T14:17:32;98786.81;;;28.55;31.54
7760;BME280;3924;48.830;9.262;2022-07-15T14:19:59;98788.06;;;28.40;31.65